sensor_id;sensor_type;location;lat;lon;timestamp;pressure;altitude;pressure_sealevel;temperature;humidity
48968;BME280;46511;53.148;8.204;2023-03-03T00:00:27;102566.34;;;4.81;100.00
48968;BME280;46511;53.148;8.204;2023-03-03T00:02:58;102554.03;;;4.84;100.00
48968;BME280;46511;53.148;8.204;2023-03-03T00:05:34;102556.69;;;4.78;100.00
48968;BME280;46511;53.148;8.204;2023-03-03T00:08:06;102557.59;;;4.74;100.00
48968;BME280;46511;53.148;8.204;2023-03-03T00:10:38;102558.50;;;4.64;100.00
48968;BME280;46511;53.148;8.204;2023-03-03T00:13:20;102562.03;;;4.58;100.00
48968;BME280;46511;53.148;8.204;2023-03-03T00:15:53;102547.09;;;4.62;100.00
48968;BME280;46511;53.148;8.204;2023-03-03T00:18:44;102546.97;;;4.90;100.00
48968;BME280;46511;53.148;8.204;2023-03-03T00:21:51;102549.59;;;4.93;100.00
48968;BME280;46511;53.148;8.204;2023-03-03T00:24:50;102547.00;;;4.86;100.00
48968;BME280;46511;53.148;8.204;2023-03-03T00:27:30;102547.88;;;4.82;100.00
48968;BME280;46511;53.148;8.204;2023-03-03T00:30:15;102551.38;;;4.91;100.00
48968;BME280;46511;53.148;8.204;2023-03-03T00:32:50;102551.44;;;4.75;100.00
48968;BME280;46511;53.148;8.204;2023-03-03T00:35:29;102562.00;;;4.63;100.00
48968;BME280;46511;53.148;8.204;2023-03-03T00:38:13;102565.47;;;4.83;100.00
48968;BME280;46511;53.148;8.204;2023-03-03T00:40:47;102560.28;;;4.59;100.00
48968;BME280;46511;53.148;8.204;2023-03-03T00:43:22;102560.19;;;4.82;100.00
48968;BME280;46511;53.148;8.204;2023-03-03T00:45:55;102561.88;;;4.97;100.00
48968;BME280;46511;53.148;8.204;2023-03-03T00:48:35;102553.97;;;4.97;100.00
48968;BME280;46511;53.148;8.204;2023-03-03T00:53:53;102546.94;;;4.99;100.00
48968;BME280;46511;53.148;8.204;2023-03-03T00:56:25;102542.47;;;5.10;100.00
48968;BME280;46511;53.148;8.204;2023-03-03T00:58:57;102542.41;;;5.19;100.00
48968;BME280;46511;53.148;8.204;2023-03-03T01:01:28;102541.69;;;4.96;100.00
48968;BME280;46511;53.148;8.204;2023-03-03T01:04:00;102549.59;;;4.96;100.00
48968;BME280;46511;53.148;8.204;2023-03-03T01:06:31;102543.41;;;5.03;100.00
48968;BME280;46511;53.148;8.204;2023-03-03T01:09:02;102540.84;;;4.94;100.00
48968;BME280;46511;53.148;8.204;2023-03-03T01:11:34;102551.38;;;4.87;100.00
48968;BME280;46511;53.148;8.204;2023-03-03T01:14:05;102554.81;;;5.06;100.00
48968;BME280;46511;53.148;8.204;2023-03-03T01:16:32;102553.97;;;4.97;100.00
48968;BME280;46511;53.148;8.204;2023-03-03T01:19:04;102551.31;;;5.03;100.00
48968;BME280;46511;53.148;8.204;2023-03-03T01:21:35;102546.00;;;5.09;100.00
48968;BME280;46511;53.148;8.204;2023-03-03T01:24:06;102546.97;;;4.93;100.00
48968;BME280;46511;53.148;8.204;2023-03-03T01:26:37;102543.47;;;4.95;100.00
48968;BME280;46511;53.148;8.204;2023-03-03T01:29:09;102539.94;;;4.96;100.00
48968;BME280;46511;53.148;8.204;2023-03-03T01:31:40;102541.59;;;5.11;100.00
48968;BME280;46511;53.148;8.204;2023-03-03T01:34:11;102531.00;;;5.20;100.00
48968;BME280;46511;53.148;8.204;2023-03-03T01:36:42;102537.16;;;5.22;100.00
48968;BME280;46511;53.148;8.204;2023-03-03T01:39:14;102537.13;;;5.24;100.00
48968;BME280;46511;53.148;8.204;2023-03-03T01:41:45;102526.69;;;5.07;100.00
48968;BME280;46511;53.148;8.204;2023-03-03T01:44:16;102528.44;;;5.08;100.00
48968;BME280;46511;53.148;8.204;2023-03-03T01:49:28;102540.78;;;5.00;100.00
48968;BME280;46511;53.148;8.204;2023-03-03T01:52:14;102523.13;;;5.17;100.00
48968;BME280;46511;53.148;8.204;2023-03-03T01:54:59;102524.88;;;5.21;100.00
48968;BME280;46511;53.148;8.204;2023-03-03T01:57:35;102516.97;;;5.21;100.00
48968;BME280;46511;53.148;8.204;2023-03-03T02:00:10;102516.88;;;5.32;100.00
48968;BME280;46511;53.148;8.204;2023-03-03T02:02:42;102507.31;;;5.17;100.00
48968;BME280;46511;53.148;8.204;2023-03-03T02:05:15;102515.16;;;5.25;100.00
48968;BME280;46511;53.148;8.204;2023-03-03T02:07:47;102509.88;;;5.28;100.00
48968;BME280;46511;53.148;8.204;2023-03-03T02:10:19;102509.84;;;5.34;100.00
48968;BME280;46511;53.148;8.204;2023-03-03T02:12:53;102509.78;;;5.40;100.00
48968;BME280;46511;53.148;8.204;2023-03-03T02:15:28;102516.13;;;5.10;100.00
48968;BME280;46511;53.148;8.204;2023-03-03T02:18:06;102501.38;;;4.83;100.00
48968;BME280;46511;53.148;8.204;2023-03-03T02:20:57;102500.25;;;5.25;100.00
48968;BME280;46511;53.148;8.204;2023-03-03T02:26:36;102516.06;;;5.22;100.00
48968;BME280;46511;53.148;8.204;2023-03-03T02:29:10;102508.09;;;5.28;100.00
48968;BME280;46511;53.148;8.204;2023-03-03T02:31:42;102510.81;;;5.22;100.00
48968;BME280;46511;53.148;8.204;2023-03-03T02:34:13;102509.31;;;4.72;100.00
48968;BME280;46511;53.148;8.204;2023-03-03T02:36:45;102518.75;;;5.11;100.00
48968;BME280;46511;53.148;8.204;2023-03-03T02:39:17;102519.56;;;5.24;100.00
48968;BME280;46511;53.148;8.204;2023-03-03T02:41:52;102506.41;;;5.20;100.00
48968;BME280;46511;53.148;8.204;2023-03-03T02:44:31;102516.06;;;5.19;100.00
48968;BME280;46511;53.148;8.204;2023-03-03T02:47:03;102519.59;;;5.21;100.00
48968;BME280;46511;53.148;8.204;2023-03-03T02:49:35;102525.72;;;5.20;100.00
48968;BME280;46511;53.148;8.204;2023-03-03T02:52:08;102524.78;;;5.33;100.00
48968;BME280;46511;53.148;8.204;2023-03-03T02:54:41;102521.25;;;5.34;100.00
48968;BME280;46511;53.148;8.204;2023-03-03T02:57:12;102523.94;;;5.27;100.00
48968;BME280;46511;53.148;8.204;2023-03-03T02:59:43;102524.00;;;5.18;100.00
48968;BME280;46511;53.148;8.204;2023-03-03T03:02:15;102519.72;;;5.00;100.00
48968;BME280;46511;53.148;8.204;2023-03-03T03:04:46;102514.53;;;4.83;100.00
48968;BME280;46511;53.148;8.204;2023-03-03T03:07:17;102511.97;;;4.75;100.00
48968;BME280;46511;53.148;8.204;2023-03-03T03:09:48;102518.88;;;4.96;100.00
48968;BME280;46511;53.148;8.204;2023-03-03T03:12:20;102516.19;;;5.01;100.00
48968;BME280;46511;53.148;8.204;2023-03-03T03:14:51;102515.44;;;4.80;100.00
48968;BME280;46511;53.148;8.204;2023-03-03T03:17:22;102523.22;;;5.03;100.00
48968;BME280;46511;53.148;8.204;2023-03-03T03:19:54;102516.97;;;5.21;100.00
48968;BME280;46511;53.148;8.204;2023-03-03T03:22:25;102517.19;;;4.81;100.00
48968;BME280;46511;53.148;8.204;2023-03-03T03:24:56;102512.75;;;4.91;100.00
48968;BME280;46511;53.148;8.204;2023-03-03T03:27:27;102507.28;;;5.20;100.00
48968;BME280;46511;53.148;8.204;2023-03-03T03:29:59;102507.25;;;5.28;100.00
48968;BME280;46511;53.148;8.204;2023-03-03T03:32:30;102503.78;;;5.21;100.00
48968;BME280;46511;53.148;8.204;2023-03-03T03:35:01;102508.25;;;5.08;100.00
48968;BME280;46511;53.148;8.204;2023-03-03T03:37:33;102518.91;;;4.93;100.00
48968;BME280;46511;53.148;8.204;2023-03-03T03:40:04;102514.38;;;5.09;100.00
48968;BME280;46511;53.148;8.204;2023-03-03T03:42:31;102511.75;;;5.10;100.00
48968;BME280;46511;53.148;8.204;2023-03-03T03:45:02;102514.41;;;5.12;100.00
48968;BME280;46511;53.148;8.204;2023-03-03T03:47:34;102510.94;;;5.04;100.00
48968;BME280;46511;53.148;8.204;2023-03-03T03:50:05;102509.22;;;4.97;100.00
48968;BME280;46511;53.148;8.204;2023-03-03T03:52:37;102514.44;;;5.03;100.00
48968;BME280;46511;53.148;8.204;2023-03-03T03:55:09;102521.44;;;5.05;100.00
48968;BME280;46511;53.148;8.204;2023-03-03T03:57:41;102524.97;;;5.03;100.00
48968;BME280;46511;53.148;8.204;2023-03-03T04:00:12;102518.75;;;5.14;100.00
48968;BME280;46511;53.148;8.204;2023-03-03T04:02:44;102526.69;;;5.07;100.00
48968;BME280;46511;53.148;8.204;2023-03-03T04:05:15;102519.66;;;5.09;100.00
48968;BME280;46511;53.148;8.204;2023-03-03T04:07:46;102523.16;;;5.14;100.00
48968;BME280;46511;53.148;8.204;2023-03-03T04:10:18;102519.75;;;4.92;100.00
48968;BME280;46511;53.148;8.204;2023-03-03T04:12:49;102519.72;;;5.03;100.00
48968;BME280;46511;53.148;8.204;2023-03-03T04:15:20;102525.75;;;5.17;100.00
48968;BME280;46511;53.148;8.204;2023-03-03T04:17:52;102531.03;;;5.15;100.00
48968;BME280;46511;53.148;8.204;2023-03-03T04:20:23;102526.69;;;5.07;100.00
48968;BME280;46511;53.148;8.204;2023-03-03T04:22:54;102516.25;;;4.95;100.00
48968;BME280;46511;53.148;8.204;2023-03-03T04:25:27;102515.31;;;5.05;100.00
48968;BME280;46511;53.148;8.204;2023-03-03T04:27:58;102509.03;;;5.24;100.00
48968;BME280;46511;53.148;8.204;2023-03-03T04:30:29;102518.06;;;4.83;100.00
48968;BME280;46511;53.148;8.204;2023-03-03T04:33:01;102518.78;;;5.08;100.00
48968;BME280;46511;53.148;8.204;2023-03-03T04:35:32;102517.88;;;5.15;100.00
48968;BME280;46511;53.148;8.204;2023-03-03T04:38:03;102518.72;;;5.22;100.00
48968;BME280;46511;53.148;8.204;2023-03-03T04:40:35;102507.38;;;5.12;100.00
48968;BME280;46511;53.148;8.204;2023-03-03T04:43:01;102505.72;;;4.93;100.00
48968;BME280;46511;53.148;8.204;2023-03-03T04:45:34;102502.94;;;5.14;100.00
48968;BME280;46511;53.148;8.204;2023-03-03T04:48:05;102499.41;;;5.17;100.00
48968;BME280;46511;53.148;8.204;2023-03-03T04:50:37;102495.09;;;5.07;100.00
48968;BME280;46511;53.148;8.204;2023-03-03T04:53:08;102507.47;;;4.93;100.00
48968;BME280;46511;53.148;8.204;2023-03-03T04:55:35;102502.09;;;5.12;100.00
48968;BME280;46511;53.148;8.204;2023-03-03T04:58:08;102510.94;;;4.98;100.00
48968;BME280;46511;53.148;8.204;2023-03-03T05:00:40;102501.19;;;5.15;100.00
48968;BME280;46511;53.148;8.204;2023-03-03T05:03:11;102501.09;;;5.27;100.00
48968;BME280;46511;53.148;8.204;2023-03-03T05:05:43;102501.94;;;5.32;100.00
48968;BME280;46511;53.148;8.204;2023-03-03T05:08:14;102494.19;;;5.08;100.00
48968;BME280;46511;53.148;8.204;2023-03-03T05:10:45;102500.50;;;4.82;100.00
48968;BME280;46511;53.148;8.204;2023-03-03T05:13:16;102492.44;;;5.08;100.00
48968;BME280;46511;53.148;8.204;2023-03-03T05:15:51;102488.03;;;5.13;100.00
48968;BME280;46511;53.148;8.204;2023-03-03T05:18:25;102486.13;;;5.29;100.00
48968;BME280;46511;53.148;8.204;2023-03-03T05:20:57;102481.72;;;5.36;100.00
48968;BME280;46511;53.148;8.204;2023-03-03T05:23:28;102483.53;;;5.28;100.00
48968;BME280;46511;53.148;8.204;2023-03-03T05:26:00;102487.19;;;5.07;100.00
48968;BME280;46511;53.148;8.204;2023-03-03T05:28:31;102484.53;;;5.13;100.00
48968;BME280;46511;53.148;8.204;2023-03-03T05:31:03;102485.47;;;5.04;100.00
48968;BME280;46511;53.148;8.204;2023-03-03T05:33:34;102484.75;;;4.73;100.00
48968;BME280;46511;53.148;8.204;2023-03-03T05:36:06;102482.22;;;4.55;100.00
48968;BME280;46511;53.148;8.204;2023-03-03T05:38:38;102480.59;;;4.28;100.00
48968;BME280;46511;53.148;8.204;2023-03-03T05:41:09;102499.00;;;4.29;100.00
48968;BME280;46511;53.148;8.204;2023-03-03T05:43:41;102503.38;;;4.17;100.00
48968;BME280;46511;53.148;8.204;2023-03-03T05:46:12;102504.22;;;4.37;100.00
48968;BME280;46511;53.148;8.204;2023-03-03T05:48:39;102508.66;;;4.27;100.00
48968;BME280;46511;53.148;8.204;2023-03-03T05:51:10;102505.13;;;4.36;100.00
48968;BME280;46511;53.148;8.204;2023-03-03T05:53:41;102509.47;;;4.40;100.00
48968;BME280;46511;53.148;8.204;2023-03-03T05:56:12;102514.66;;;4.54;100.00
48968;BME280;46511;53.148;8.204;2023-03-03T05:58:44;102507.66;;;4.56;100.00
48968;BME280;46511;53.148;8.204;2023-03-03T06:01:10;102507.66;;;4.53;100.00
48968;BME280;46511;53.148;8.204;2023-03-03T06:03:42;102518.16;;;4.65;100.00
48968;BME280;46511;53.148;8.204;2023-03-03T06:06:13;102525.19;;;4.60;100.00
48968;BME280;46511;53.148;8.204;2023-03-03T06:08:46;102524.25;;;4.70;100.00
48968;BME280;46511;53.148;8.204;2023-03-03T06:11:18;102529.47;;;4.81;100.00
48968;BME280;46511;53.148;8.204;2023-03-03T06:13:49;102526.88;;;4.73;100.00
48968;BME280;46511;53.148;8.204;2023-03-03T06:16:21;102532.94;;;4.91;100.00
48968;BME280;46511;53.148;8.204;2023-03-03T06:18:52;102539.16;;;4.71;100.00
48968;BME280;46511;53.148;8.204;2023-03-03T06:21:23;102541.75;;;4.83;100.00
48968;BME280;46511;53.148;8.204;2023-03-03T06:23:54;102547.94;;;4.76;100.00
48968;BME280;46511;53.148;8.204;2023-03-03T06:26:26;102554.94;;;4.83;100.00
48968;BME280;46511;53.148;8.204;2023-03-03T06:28:57;102544.31;;;4.99;100.00
48968;BME280;46511;53.148;8.204;2023-03-03T06:31:29;102554.06;;;4.72;100.00
48968;BME280;46511;53.148;8.204;2023-03-03T06:34:00;102562.03;;;4.66;100.00
48968;BME280;46511;53.148;8.204;2023-03-03T06:36:32;102558.41;;;4.88;100.00
48968;BME280;46511;53.148;8.204;2023-03-03T06:39:03;102570.78;;;4.68;100.00
48968;BME280;46511;53.148;8.204;2023-03-03T06:41:34;102568.94;;;4.88;100.00
48968;BME280;46511;53.148;8.204;2023-03-03T06:44:06;102567.28;;;4.66;100.00
48968;BME280;46511;53.148;8.204;2023-03-03T06:46:37;102570.78;;;4.62;100.00
48968;BME280;46511;53.148;8.204;2023-03-03T06:49:08;102566.44;;;4.52;100.00
48968;BME280;46511;53.148;8.204;2023-03-03T06:51:40;102568.22;;;4.41;100.00
48968;BME280;46511;53.148;8.204;2023-03-03T06:54:16;102570.84;;;4.50;100.00
48968;BME280;46511;53.148;8.204;2023-03-03T06:56:49;102570.75;;;4.73;100.00
48968;BME280;46511;53.148;8.204;2023-03-03T06:59:26;102568.16;;;4.64;100.00
48968;BME280;46511;53.148;8.204;2023-03-03T07:01:58;102567.13;;;5.03;100.00
48968;BME280;46511;53.148;8.204;2023-03-03T07:04:32;102574.25;;;4.73;100.00
48968;BME280;46511;53.148;8.204;2023-03-03T07:07:10;102572.41;;;4.97;100.00
48968;BME280;46511;53.148;8.204;2023-03-03T07:09:51;102568.00;;;4.99;100.00
48968;BME280;46511;53.148;8.204;2023-03-03T07:12:25;102573.19;;;5.14;100.00
48968;BME280;46511;53.148;8.204;2023-03-03T07:15:11;102563.47;;;5.25;100.00
48968;BME280;46511;53.148;8.204;2023-03-03T07:17:49;102568.72;;;5.27;100.00
48968;BME280;46511;53.148;8.204;2023-03-03T07:20:42;102580.19;;;5.18;100.00
48968;BME280;46511;53.148;8.204;2023-03-03T07:23:22;102576.66;;;5.24;100.00
48968;BME280;46511;53.148;8.204;2023-03-03T07:25:55;102582.81;;;5.20;100.00
48968;BME280;46511;53.148;8.204;2023-03-03T07:28:27;102580.03;;;5.45;100.00
48968;BME280;46511;53.148;8.204;2023-03-03T07:30:59;102572.97;;;5.51;100.00
48968;BME280;46511;53.148;8.204;2023-03-03T07:33:33;102579.75;;;5.82;100.00
48968;BME280;46511;53.148;8.204;2023-03-03T07:36:21;102583.75;;;6.29;100.00
48968;BME280;46511;53.148;8.204;2023-03-03T07:38:59;102587.19;;;6.37;100.00
48968;BME280;46511;53.148;8.204;2023-03-03T07:41:31;102582.59;;;6.53;100.00
48968;BME280;46511;53.148;8.204;2023-03-03T07:44:27;102575.78;;;6.34;100.00
48968;BME280;46511;53.148;8.204;2023-03-03T07:47:11;102578.19;;;6.56;100.00
48968;BME280;46511;53.148;8.204;2023-03-03T07:49:43;102576.78;;;6.22;100.00
48968;BME280;46511;53.148;8.204;2023-03-03T07:52:25;102581.53;;;6.71;100.00
48968;BME280;46511;53.148;8.204;2023-03-03T08:03:34;102577.69;;;6.96;100.00
48968;BME280;46511;53.148;8.204;2023-03-03T08:06:10;102581.41;;;6.83;100.00
48968;BME280;46511;53.148;8.204;2023-03-03T08:11:47;102572.84;;;7.27;100.00
48968;BME280;46511;53.148;8.204;2023-03-03T08:14:28;102577.56;;;7.05;100.00
48968;BME280;46511;53.148;8.204;2023-03-03T08:17:01;102570.09;;;7.35;100.00
48968;BME280;46511;53.148;8.204;2023-03-03T08:19:43;102567.81;;;8.20;100.00
48968;BME280;46511;53.148;8.204;2023-03-03T08:22:15;102570.19;;;8.37;100.00
48968;BME280;46511;53.148;8.204;2023-03-03T08:24:48;102563.06;;;8.83;100.00
48968;BME280;46511;53.148;8.204;2023-03-03T08:27:20;102559.78;;;8.71;100.00
48968;BME280;46511;53.148;8.204;2023-03-03T08:29:51;102562.53;;;8.18;100.00
48968;BME280;46511;53.148;8.204;2023-03-03T08:32:22;102565.25;;;8.15;100.00
48968;BME280;46511;53.148;8.204;2023-03-03T08:34:56;102561.81;;;8.10;100.00
48968;BME280;46511;53.148;8.204;2023-03-03T08:37:27;102559.19;;;7.56;100.00
48968;BME280;46511;53.148;8.204;2023-03-03T08:39:59;102568.63;;;8.25;100.00
48968;BME280;46511;53.148;8.204;2023-03-03T08:42:30;102565.91;;;7.79;100.00
48968;BME280;46511;53.148;8.204;2023-03-03T08:45:01;102561.00;;;7.54;100.00
48968;BME280;46511;53.148;8.204;2023-03-03T08:47:33;102568.41;;;7.31;100.00
48968;BME280;46511;53.148;8.204;2023-03-03T08:50:04;102578.28;;;6.47;100.00
48968;BME280;46511;53.148;8.204;2023-03-03T08:52:36;102580.72;;;6.63;100.00
48968;BME280;46511;53.148;8.204;2023-03-03T08:55:08;102572.41;;;8.10;100.00
48968;BME280;46511;53.148;8.204;2023-03-03T08:57:40;102562.19;;;9.96;100.00
48968;BME280;46511;53.148;8.204;2023-03-03T09:00:12;102559.97;;;11.06;100.00
48968;BME280;46511;53.148;8.204;2023-03-03T09:02:46;102562.47;;;10.83;100.00
48968;BME280;46511;53.148;8.204;2023-03-03T09:05:19;102573.97;;;9.84;100.00
48968;BME280;46511;53.148;8.204;2023-03-03T09:07:51;102579.31;;;8.67;100.00
48968;BME280;46511;53.148;8.204;2023-03-03T09:10:23;102580.91;;;8.27;100.00
48968;BME280;46511;53.148;8.204;2023-03-03T09:13:11;102575.91;;;10.12;100.00
48968;BME280;46511;53.148;8.204;2023-03-03T09:15:45;102574.03;;;11.11;100.00
48968;BME280;46511;53.148;8.204;2023-03-03T09:18:21;102575.66;;;13.87;96.73
48968;BME280;46511;53.148;8.204;2023-03-03T09:21:01;102568.84;;;13.12;93.88
48968;BME280;46511;53.148;8.204;2023-03-03T09:23:34;102573.56;;;12.82;94.99
48968;BME280;46511;53.148;8.204;2023-03-03T09:28:41;102577.38;;;13.22;91.10
48968;BME280;46511;53.148;8.204;2023-03-03T09:31:26;102571.19;;;12.50;93.40
48968;BME280;46511;53.148;8.204;2023-03-03T09:34:11;102570.66;;;12.15;97.42
48968;BME280;46511;53.148;8.204;2023-03-03T09:36:50;102568.69;;;13.17;97.18
48968;BME280;46511;53.148;8.204;2023-03-03T09:39:23;102568.53;;;14.69;84.92
48968;BME280;46511;53.148;8.204;2023-03-03T09:44:55;102570.94;;;13.93;82.57
48968;BME280;46511;53.148;8.204;2023-03-03T09:47:51;102561.22;;;17.02;73.64
48968;BME280;46511;53.148;8.204;2023-03-03T09:50:31;102558.44;;;16.88;64.33
48968;BME280;46511;53.148;8.204;2023-03-03T10:01:42;102556.19;;;19.06;52.08
48968;BME280;46511;53.148;8.204;2023-03-03T10:07:17;102563.22;;;18.80;49.31
48968;BME280;46511;53.148;8.204;2023-03-03T10:10:28;102563.19;;;16.65;58.84
48968;BME280;46511;53.148;8.204;2023-03-03T10:13:28;102553.97;;;17.35;60.39
48968;BME280;46511;53.148;8.204;2023-03-03T10:18:51;102561.91;;;20.09;44.94
48968;BME280;46511;53.148;8.204;2023-03-03T10:21:50;102549.53;;;24.23;34.67
48968;BME280;46511;53.148;8.204;2023-03-03T10:24:39;102558.81;;;24.21;36.89
48968;BME280;46511;53.148;8.204;2023-03-03T10:30:00;102554.19;;;24.12;35.46
48968;BME280;46511;53.148;8.204;2023-03-03T10:32:46;102544.97;;;24.24;34.97
48968;BME280;46511;53.148;8.204;2023-03-03T10:35:31;102554.06;;;22.15;38.49
48968;BME280;46511;53.148;8.204;2023-03-03T10:38:26;102552.84;;;24.06;35.86
48968;BME280;46511;53.148;8.204;2023-03-03T10:47:03;102556.41;;;19.30;48.51
48968;BME280;46511;53.148;8.204;2023-03-03T10:50:02;102561.38;;;16.33;55.52
48968;BME280;46511;53.148;8.204;2023-03-03T10:53:02;102577.44;;;15.63;67.21
48968;BME280;46511;53.148;8.204;2023-03-03T10:59:04;102570.94;;;13.50;84.54
48968;BME280;46511;53.148;8.204;2023-03-03T11:01:57;102565.84;;;13.22;89.79
48968;BME280;46511;53.148;8.204;2023-03-03T11:07:19;102575.63;;;12.98;96.14
48968;BME280;46511;53.148;8.204;2023-03-03T11:13:24;102574.78;;;11.99;100.00
48968;BME280;46511;53.148;8.204;2023-03-03T11:16:14;102570.97;;;12.06;100.00
48968;BME280;46511;53.148;8.204;2023-03-03T11:30:43;102563.56;;;11.61;100.00
48968;BME280;46511;53.148;8.204;2023-03-03T11:33:46;102569.72;;;11.63;100.00
48968;BME280;46511;53.148;8.204;2023-03-03T11:36:51;102561.63;;;12.19;100.00
48968;BME280;46511;53.148;8.204;2023-03-03T11:39:27;102570.63;;;11.06;100.00
48968;BME280;46511;53.148;8.204;2023-03-03T11:42:16;102567.78;;;10.83;100.00
48968;BME280;46511;53.148;8.204;2023-03-03T11:45:10;102562.50;;;10.52;100.00
48968;BME280;46511;53.148;8.204;2023-03-03T11:50:34;102560.00;;;10.12;100.00
48968;BME280;46511;53.148;8.204;2023-03-03T11:56:43;102555.16;;;10.91;100.00
48968;BME280;46511;53.148;8.204;2023-03-03T12:01:59;102544.44;;;11.50;100.00
48968;BME280;46511;53.148;8.204;2023-03-03T12:04:34;102549.84;;;11.47;100.00
48968;BME280;46511;53.148;8.204;2023-03-03T12:12:42;102535.69;;;11.45;100.00
48968;BME280;46511;53.148;8.204;2023-03-03T12:18:17;102527.50;;;11.25;100.00
48968;BME280;46511;53.148;8.204;2023-03-03T12:21:14;102523.84;;;11.29;100.00
48968;BME280;46511;53.148;8.204;2023-03-03T12:24:33;102525.47;;;11.87;100.00
48968;BME280;46511;53.148;8.204;2023-03-03T12:47:21;102506.00;;;13.49;84.56
48968;BME280;46511;53.148;8.204;2023-03-03T12:55:58;102503.78;;;11.19;100.00
48968;BME280;46511;53.148;8.204;2023-03-03T12:58:40;102501.53;;;11.33;100.00
48968;BME280;46511;53.148;8.204;2023-03-03T13:07:11;102498.44;;;11.45;100.00
48968;BME280;46511;53.148;8.204;2023-03-03T13:09:58;102487.91;;;11.68;98.59
48968;BME280;46511;53.148;8.204;2023-03-03T13:15:57;102485.84;;;11.24;99.21
48968;BME280;46511;53.148;8.204;2023-03-03T13:24:28;102488.38;;;11.28;88.47
48968;BME280;46511;53.148;8.204;2023-03-03T13:35:31;102452.25;;;14.18;63.44
48968;BME280;46511;53.148;8.204;2023-03-03T13:38:33;102453.09;;;12.24;74.13
48968;BME280;46511;53.148;8.204;2023-03-03T13:44:10;102448.47;;;12.53;81.53
48968;BME280;46511;53.148;8.204;2023-03-03T13:52:53;102448.94;;;11.41;89.67
48968;BME280;46511;53.148;8.204;2023-03-03T13:55:43;102439.41;;;11.34;91.45
48968;BME280;46511;53.148;8.204;2023-03-03T13:58:24;102426.97;;;10.80;97.46
48968;BME280;46511;53.148;8.204;2023-03-03T14:01:16;102426.59;;;10.92;96.64
48968;BME280;46511;53.148;8.204;2023-03-03T14:04:01;102424.16;;;11.12;95.49
48968;BME280;46511;53.148;8.204;2023-03-03T14:06:53;102429.34;;;10.89;97.98
48968;BME280;46511;53.148;8.204;2023-03-03T14:09:38;102422.38;;;10.85;99.09
48968;BME280;46511;53.148;8.204;2023-03-03T14:15:10;102416.78;;;10.37;100.00
48968;BME280;46511;53.148;8.204;2023-03-03T14:20:48;102401.41;;;11.30;95.86
48968;BME280;46511;53.148;8.204;2023-03-03T14:26:49;102396.81;;;12.34;85.00
48968;BME280;46511;53.148;8.204;2023-03-03T14:31:58;102398.28;;;10.63;93.60
48968;BME280;46511;53.148;8.204;2023-03-03T14:34:56;102392.47;;;10.19;99.04
48968;BME280;46511;53.148;8.204;2023-03-03T14:37:41;102390.75;;;11.04;95.06
48968;BME280;46511;53.148;8.204;2023-03-03T14:40:15;102387.44;;;11.24;93.14
48968;BME280;46511;53.148;8.204;2023-03-03T14:45:28;102378.34;;;10.19;96.02
48968;BME280;46511;53.148;8.204;2023-03-03T14:50:41;102378.44;;;11.01;94.06
48968;BME280;46511;53.148;8.204;2023-03-03T14:55:50;102376.59;;;10.18;98.22
48968;BME280;46511;53.148;8.204;2023-03-03T15:03:46;102365.78;;;15.11;65.39
48968;BME280;46511;53.148;8.204;2023-03-03T15:06:29;102366.31;;;14.27;62.70
48968;BME280;46511;53.148;8.204;2023-03-03T15:12:19;102363.25;;;11.81;79.22
48968;BME280;46511;53.148;8.204;2023-03-03T15:15:01;102354.31;;;12.29;78.69
48968;BME280;46511;53.148;8.204;2023-03-03T15:17:39;102368.22;;;11.90;79.62
48968;BME280;46511;53.148;8.204;2023-03-03T15:22:56;102362.66;;;10.69;86.51
48968;BME280;46511;53.148;8.204;2023-03-03T15:31:39;102361.41;;;10.52;92.67
48968;BME280;46511;53.148;8.204;2023-03-03T15:34:32;102363.88;;;10.29;91.84
48968;BME280;46511;53.148;8.204;2023-03-03T15:40:23;102352.91;;;9.81;96.47
48968;BME280;46511;53.148;8.204;2023-03-03T15:48:54;102348.91;;;9.64;100.00
48968;BME280;46511;53.148;8.204;2023-03-03T15:54:56;102346.56;;;9.85;99.22
48968;BME280;46511;53.148;8.204;2023-03-03T16:03:26;102336.41;;;9.37;100.00
48968;BME280;46511;53.148;8.204;2023-03-03T16:06:10;102342.19;;;9.20;100.00
48968;BME280;46511;53.148;8.204;2023-03-03T16:08:48;102347.25;;;9.29;100.00
48968;BME280;46511;53.148;8.204;2023-03-03T16:11:25;102338.19;;;9.36;100.00
48968;BME280;46511;53.148;8.204;2023-03-03T16:14:06;102340.84;;;9.36;100.00
48968;BME280;46511;53.148;8.204;2023-03-03T16:16:58;102346.44;;;8.92;100.00
48968;BME280;46511;53.148;8.204;2023-03-03T16:22:23;102342.34;;;9.14;100.00
48968;BME280;46511;53.148;8.204;2023-03-03T16:28:23;102339.16;;;9.00;100.00
48968;BME280;46511;53.148;8.204;2023-03-03T16:33:53;102351.34;;;9.07;100.00
48968;BME280;46511;53.148;8.204;2023-03-03T16:36:28;102344.50;;;8.63;100.00
48968;BME280;46511;53.148;8.204;2023-03-03T16:39:16;102339.91;;;8.69;100.00
48968;BME280;46511;53.148;8.204;2023-03-03T16:42:01;102347.59;;;8.80;100.00
48968;BME280;46511;53.148;8.204;2023-03-03T16:50:15;102355.97;;;8.63;100.00
48968;BME280;46511;53.148;8.204;2023-03-03T17:01:16;102361.91;;;8.36;100.00
48968;BME280;46511;53.148;8.204;2023-03-03T17:04:01;102361.91;;;8.36;100.00
48968;BME280;46511;53.148;8.204;2023-03-03T17:06:57;102369.25;;;8.60;100.00
48968;BME280;46511;53.148;8.204;2023-03-03T17:12:07;102367.38;;;8.26;100.00
48968;BME280;46511;53.148;8.204;2023-03-03T17:17:51;102364.19;;;8.09;100.00
48968;BME280;46511;53.148;8.204;2023-03-03T17:20:36;102365.06;;;8.10;100.00
48968;BME280;46511;53.148;8.204;2023-03-03T17:43:06;102384.13;;;7.84;100.00
48968;BME280;46511;53.148;8.204;2023-03-03T17:46:00;102380.25;;;8.00;100.00
48968;BME280;46511;53.148;8.204;2023-03-03T18:00:22;102380.16;;;8.06;100.00